sensor_id;sensor_type;location;lat;lon;timestamp;P1;durP1;ratioP1;P2;durP2;ratioP2
11287;SDS011;5700;50.996;7.044;2024-01-30T00:02:15;7.57;;;4.20;;
11287;SDS011;5700;50.996;7.044;2024-01-30T00:05:17;8.43;;;4.40;;
11287;SDS011;5700;50.996;7.044;2024-01-30T00:08:18;9.38;;;4.28;;
11287;SDS011;5700;50.996;7.044;2024-01-30T00:11:22;6.60;;;3.78;;
11287;SDS011;5700;50.996;7.044;2024-01-30T00:14:25;7.60;;;3.90;;
11287;SDS011;5700;50.996;7.044;2024-01-30T00:17:27;8.40;;;4.10;;
11287;SDS011;5700;50.996;7.044;2024-01-30T00:20:29;7.22;;;3.95;;
11287;SDS011;5700;50.996;7.044;2024-01-30T00:23:30;8.52;;;4.43;;
11287;SDS011;5700;50.996;7.044;2024-01-30T00:26:34;11.50;;;5.47;;
11287;SDS011;5700;50.996;7.044;2024-01-30T00:29:35;10.77;;;4.75;;
11287;SDS011;5700;50.996;7.044;2024-01-30T00:32:37;9.52;;;4.53;;
11287;SDS011;5700;50.996;7.044;2024-01-30T00:35:38;10.45;;;4.90;;
11287;SDS011;5700;50.996;7.044;2024-01-30T00:38:40;11.00;;;5.78;;
11287;SDS011;5700;50.996;7.044;2024-01-30T00:41:43;9.75;;;5.18;;
11287;SDS011;5700;50.996;7.044;2024-01-30T00:44:44;9.73;;;4.60;;
11287;SDS011;5700;50.996;7.044;2024-01-30T00:47:46;10.95;;;5.65;;
11287;SDS011;5700;50.996;7.044;2024-01-30T00:50:47;11.38;;;4.90;;
11287;SDS011;5700;50.996;7.044;2024-01-30T00:53:49;9.65;;;4.97;;
11287;SDS011;5700;50.996;7.044;2024-01-30T00:56:52;8.80;;;4.53;;
11287;SDS011;5700;50.996;7.044;2024-01-30T00:59:54;8.05;;;4.70;;
11287;SDS011;5700;50.996;7.044;2024-01-30T01:02:55;9.13;;;4.60;;
11287;SDS011;5700;50.996;7.044;2024-01-30T01:05:57;8.05;;;4.28;;
11287;SDS011;5700;50.996;7.044;2024-01-30T01:08:59;9.00;;;4.65;;
11287;SDS011;5700;50.996;7.044;2024-01-30T01:12:02;10.18;;;4.80;;
11287;SDS011;5700;50.996;7.044;2024-01-30T01:15:05;9.52;;;4.93;;
11287;SDS011;5700;50.996;7.044;2024-01-30T01:18:09;8.82;;;5.35;;
11287;SDS011;5700;50.996;7.044;2024-01-30T01:21:11;10.45;;;5.13;;
11287;SDS011;5700;50.996;7.044;2024-01-30T01:24:12;9.13;;;4.57;;
11287;SDS011;5700;50.996;7.044;2024-01-30T01:27:16;9.27;;;4.57;;
11287;SDS011;5700;50.996;7.044;2024-01-30T01:30:17;11.73;;;5.22;;
11287;SDS011;5700;50.996;7.044;2024-01-30T01:33:21;8.30;;;4.90;;
11287;SDS011;5700;50.996;7.044;2024-01-30T01:36:23;11.05;;;4.93;;
11287;SDS011;5700;50.996;7.044;2024-01-30T01:39:25;8.68;;;4.95;;
11287;SDS011;5700;50.996;7.044;2024-01-30T01:42:28;9.70;;;4.68;;
11287;SDS011;5700;50.996;7.044;2024-01-30T01:45:30;11.15;;;4.88;;
11287;SDS011;5700;50.996;7.044;2024-01-30T01:48:32;8.45;;;4.82;;
11287;SDS011;5700;50.996;7.044;2024-01-30T01:51:35;9.57;;;5.25;;
11287;SDS011;5700;50.996;7.044;2024-01-30T01:54:39;10.20;;;5.30;;
11287;SDS011;5700;50.996;7.044;2024-01-30T01:57:43;8.30;;;4.38;;
11287;SDS011;5700;50.996;7.044;2024-01-30T02:00:45;10.07;;;5.30;;
11287;SDS011;5700;50.996;7.044;2024-01-30T02:03:47;10.35;;;5.60;;
11287;SDS011;5700;50.996;7.044;2024-01-30T02:06:49;12.02;;;5.75;;
11287;SDS011;5700;50.996;7.044;2024-01-30T02:09:51;11.23;;;5.05;;
11287;SDS011;5700;50.996;7.044;2024-01-30T02:12:54;11.88;;;5.28;;
11287;SDS011;5700;50.996;7.044;2024-01-30T02:15:56;11.88;;;5.50;;
11287;SDS011;5700;50.996;7.044;2024-01-30T02:18:58;9.30;;;5.00;;
11287;SDS011;5700;50.996;7.044;2024-01-30T02:22:01;8.80;;;4.55;;
11287;SDS011;5700;50.996;7.044;2024-01-30T02:25:02;8.60;;;4.45;;
11287;SDS011;5700;50.996;7.044;2024-01-30T02:28:04;9.27;;;5.03;;
11287;SDS011;5700;50.996;7.044;2024-01-30T02:31:06;9.35;;;5.07;;
11287;SDS011;5700;50.996;7.044;2024-01-30T02:34:08;8.85;;;5.00;;
11287;SDS011;5700;50.996;7.044;2024-01-30T02:37:11;9.13;;;4.90;;
11287;SDS011;5700;50.996;7.044;2024-01-30T02:40:13;10.95;;;6.10;;
11287;SDS011;5700;50.996;7.044;2024-01-30T02:43:15;11.32;;;5.30;;
11287;SDS011;5700;50.996;7.044;2024-01-30T02:46:18;8.35;;;4.70;;
11287;SDS011;5700;50.996;7.044;2024-01-30T02:49:20;11.15;;;5.13;;
11287;SDS011;5700;50.996;7.044;2024-01-30T02:52:24;10.88;;;5.03;;
11287;SDS011;5700;50.996;7.044;2024-01-30T02:55:25;13.05;;;5.03;;
11287;SDS011;5700;50.996;7.044;2024-01-30T02:58:27;12.20;;;5.72;;
11287;SDS011;5700;50.996;7.044;2024-01-30T03:01:28;10.15;;;4.63;;
11287;SDS011;5700;50.996;7.044;2024-01-30T03:04:31;10.32;;;4.70;;
11287;SDS011;5700;50.996;7.044;2024-01-30T03:07:35;9.10;;;5.03;;
11287;SDS011;5700;50.996;7.044;2024-01-30T03:10:36;10.43;;;5.45;;
11287;SDS011;5700;50.996;7.044;2024-01-30T03:13:38;9.23;;;4.75;;
11287;SDS011;5700;50.996;7.044;2024-01-30T03:16:40;8.05;;;4.68;;
11287;SDS011;5700;50.996;7.044;2024-01-30T03:19:42;10.23;;;4.82;;
11287;SDS011;5700;50.996;7.044;2024-01-30T03:22:46;9.57;;;4.75;;
11287;SDS011;5700;50.996;7.044;2024-01-30T03:25:47;10.38;;;5.32;;
11287;SDS011;5700;50.996;7.044;2024-01-30T03:28:49;11.40;;;5.72;;
11287;SDS011;5700;50.996;7.044;2024-01-30T03:31:51;10.63;;;5.00;;
11287;SDS011;5700;50.996;7.044;2024-01-30T03:34:53;12.10;;;5.68;;
11287;SDS011;5700;50.996;7.044;2024-01-30T03:37:56;10.32;;;5.30;;
11287;SDS011;5700;50.996;7.044;2024-01-30T03:40:58;10.65;;;5.43;;
11287;SDS011;5700;50.996;7.044;2024-01-30T03:43:59;13.68;;;4.95;;
11287;SDS011;5700;50.996;7.044;2024-01-30T03:47:01;10.10;;;5.00;;
11287;SDS011;5700;50.996;7.044;2024-01-30T03:50:03;10.45;;;5.18;;
11287;SDS011;5700;50.996;7.044;2024-01-30T03:53:07;11.15;;;5.30;;
11287;SDS011;5700;50.996;7.044;2024-01-30T03:56:09;8.38;;;4.50;;
11287;SDS011;5700;50.996;7.044;2024-01-30T03:59:11;9.27;;;4.40;;
11287;SDS011;5700;50.996;7.044;2024-01-30T04:02:12;8.63;;;4.82;;
11287;SDS011;5700;50.996;7.044;2024-01-30T04:05:14;9.02;;;5.20;;
11287;SDS011;5700;50.996;7.044;2024-01-30T04:08:18;10.57;;;4.55;;
11287;SDS011;5700;50.996;7.044;2024-01-30T04:11:19;11.23;;;5.25;;
11287;SDS011;5700;50.996;7.044;2024-01-30T04:14:21;10.85;;;5.15;;
11287;SDS011;5700;50.996;7.044;2024-01-30T04:17:22;8.93;;;4.80;;
11287;SDS011;5700;50.996;7.044;2024-01-30T04:20:24;7.28;;;4.50;;
11287;SDS011;5700;50.996;7.044;2024-01-30T04:23:27;8.65;;;4.53;;
11287;SDS011;5700;50.996;7.044;2024-01-30T04:26:28;8.75;;;4.40;;
11287;SDS011;5700;50.996;7.044;2024-01-30T04:29:30;10.40;;;5.07;;
11287;SDS011;5700;50.996;7.044;2024-01-30T04:32:33;11.55;;;5.13;;
11287;SDS011;5700;50.996;7.044;2024-01-30T04:35:35;10.52;;;4.75;;
11287;SDS011;5700;50.996;7.044;2024-01-30T04:38:39;8.02;;;4.22;;
11287;SDS011;5700;50.996;7.044;2024-01-30T04:41:40;11.23;;;5.45;;
11287;SDS011;5700;50.996;7.044;2024-01-30T04:44:42;11.55;;;5.10;;
11287;SDS011;5700;50.996;7.044;2024-01-30T04:47:44;8.23;;;4.50;;
11287;SDS011;5700;50.996;7.044;2024-01-30T04:50:46;11.68;;;4.13;;
11287;SDS011;5700;50.996;7.044;2024-01-30T04:53:49;11.40;;;4.95;;
11287;SDS011;5700;50.996;7.044;2024-01-30T04:56:51;9.18;;;4.45;;
11287;SDS011;5700;50.996;7.044;2024-01-30T04:59:52;11.15;;;4.65;;
11287;SDS011;5700;50.996;7.044;2024-01-30T05:02:54;8.05;;;4.00;;
11287;SDS011;5700;50.996;7.044;2024-01-30T05:05:56;7.70;;;4.55;;
11287;SDS011;5700;50.996;7.044;2024-01-30T05:08:59;7.95;;;4.53;;
11287;SDS011;5700;50.996;7.044;2024-01-30T05:12:00;7.90;;;4.53;;
11287;SDS011;5700;50.996;7.044;2024-01-30T05:15:02;8.32;;;4.63;;
11287;SDS011;5700;50.996;7.044;2024-01-30T05:18:04;10.93;;;5.03;;
11287;SDS011;5700;50.996;7.044;2024-01-30T05:21:06;7.93;;;3.90;;
11287;SDS011;5700;50.996;7.044;2024-01-30T05:24:10;9.95;;;4.88;;
11287;SDS011;5700;50.996;7.044;2024-01-30T05:27:12;8.35;;;4.20;;
11287;SDS011;5700;50.996;7.044;2024-01-30T05:30:14;8.75;;;4.70;;
11287;SDS011;5700;50.996;7.044;2024-01-30T05:33:16;11.32;;;4.65;;
11287;SDS011;5700;50.996;7.044;2024-01-30T05:36:18;8.68;;;4.53;;
11287;SDS011;5700;50.996;7.044;2024-01-30T05:39:22;10.05;;;4.47;;
11287;SDS011;5700;50.996;7.044;2024-01-30T05:42:24;8.02;;;4.55;;
11287;SDS011;5700;50.996;7.044;2024-01-30T05:45:27;9.63;;;4.72;;
11287;SDS011;5700;50.996;7.044;2024-01-30T05:48:28;7.63;;;4.22;;
11287;SDS011;5700;50.996;7.044;2024-01-30T05:51:30;10.20;;;4.63;;
11287;SDS011;5700;50.996;7.044;2024-01-30T05:54:34;8.55;;;4.60;;
11287;SDS011;5700;50.996;7.044;2024-01-30T05:57:35;9.98;;;4.93;;
11287;SDS011;5700;50.996;7.044;2024-01-30T06:00:37;10.00;;;4.82;;
11287;SDS011;5700;50.996;7.044;2024-01-30T06:03:38;11.85;;;5.38;;
11287;SDS011;5700;50.996;7.044;2024-01-30T06:06:40;9.65;;;4.90;;
11287;SDS011;5700;50.996;7.044;2024-01-30T06:09:44;11.10;;;4.90;;
11287;SDS011;5700;50.996;7.044;2024-01-30T06:12:46;8.23;;;4.60;;
11287;SDS011;5700;50.996;7.044;2024-01-30T06:15:48;9.98;;;5.00;;
11287;SDS011;5700;50.996;7.044;2024-01-30T06:18:50;9.73;;;4.72;;
11287;SDS011;5700;50.996;7.044;2024-01-30T06:21:51;11.68;;;5.45;;
11287;SDS011;5700;50.996;7.044;2024-01-30T06:24:55;7.88;;;4.22;;
11287;SDS011;5700;50.996;7.044;2024-01-30T06:27:57;9.35;;;4.82;;
11287;SDS011;5700;50.996;7.044;2024-01-30T06:30:58;10.55;;;5.22;;
11287;SDS011;5700;50.996;7.044;2024-01-30T06:34:02;10.88;;;5.00;;
11287;SDS011;5700;50.996;7.044;2024-01-30T06:37:04;12.52;;;5.45;;
11287;SDS011;5700;50.996;7.044;2024-01-30T06:40:07;10.50;;;5.40;;
11287;SDS011;5700;50.996;7.044;2024-01-30T06:43:09;11.15;;;5.93;;
11287;SDS011;5700;50.996;7.044;2024-01-30T06:46:11;8.27;;;4.57;;
11287;SDS011;5700;50.996;7.044;2024-01-30T06:49:13;13.02;;;5.25;;
11287;SDS011;5700;50.996;7.044;2024-01-30T06:52:17;8.25;;;4.82;;
11287;SDS011;5700;50.996;7.044;2024-01-30T06:55:20;10.43;;;5.63;;
11287;SDS011;5700;50.996;7.044;2024-01-30T06:58:22;9.95;;;5.00;;
11287;SDS011;5700;50.996;7.044;2024-01-30T07:01:27;9.77;;;5.35;;
11287;SDS011;5700;50.996;7.044;2024-01-30T07:04:29;9.00;;;5.10;;
11287;SDS011;5700;50.996;7.044;2024-01-30T07:07:32;9.20;;;4.63;;
11287;SDS011;5700;50.996;7.044;2024-01-30T07:10:35;9.13;;;4.93;;
11287;SDS011;5700;50.996;7.044;2024-01-30T07:13:36;8.68;;;4.80;;
11287;SDS011;5700;50.996;7.044;2024-01-30T07:16:38;11.65;;;5.10;;
11287;SDS011;5700;50.996;7.044;2024-01-30T07:19:40;8.50;;;4.75;;
11287;SDS011;5700;50.996;7.044;2024-01-30T07:22:41;11.55;;;5.03;;
11287;SDS011;5700;50.996;7.044;2024-01-30T07:25:44;9.27;;;4.68;;
11287;SDS011;5700;50.996;7.044;2024-01-30T07:28:48;9.02;;;4.28;;
11287;SDS011;5700;50.996;7.044;2024-01-30T07:31:51;9.30;;;4.65;;
11287;SDS011;5700;50.996;7.044;2024-01-30T07:34:53;7.70;;;4.18;;
11287;SDS011;5700;50.996;7.044;2024-01-30T07:37:55;10.25;;;4.78;;
11287;SDS011;5700;50.996;7.044;2024-01-30T07:40:59;12.45;;;4.60;;
11287;SDS011;5700;50.996;7.044;2024-01-30T07:44:00;9.95;;;4.82;;
11287;SDS011;5700;50.996;7.044;2024-01-30T07:47:02;11.40;;;4.53;;
11287;SDS011;5700;50.996;7.044;2024-01-30T07:50:04;10.70;;;4.63;;
11287;SDS011;5700;50.996;7.044;2024-01-30T07:53:06;7.47;;;4.47;;
11287;SDS011;5700;50.996;7.044;2024-01-30T07:56:10;9.95;;;4.78;;
11287;SDS011;5700;50.996;7.044;2024-01-30T07:59:12;7.93;;;4.40;;
11287;SDS011;5700;50.996;7.044;2024-01-30T08:02:13;9.30;;;4.13;;
11287;SDS011;5700;50.996;7.044;2024-01-30T08:05:15;8.45;;;4.15;;
11287;SDS011;5700;50.996;7.044;2024-01-30T08:08:17;8.95;;;4.63;;
11287;SDS011;5700;50.996;7.044;2024-01-30T08:11:21;9.63;;;4.47;;
11287;SDS011;5700;50.996;7.044;2024-01-30T08:14:26;10.90;;;4.40;;
11287;SDS011;5700;50.996;7.044;2024-01-30T08:17:28;7.88;;;4.18;;
11287;SDS011;5700;50.996;7.044;2024-01-30T08:20:29;8.15;;;4.53;;
11287;SDS011;5700;50.996;7.044;2024-01-30T08:23:31;8.45;;;4.28;;
11287;SDS011;5700;50.996;7.044;2024-01-30T08:26:34;7.13;;;3.78;;
11287;SDS011;5700;50.996;7.044;2024-01-30T08:29:37;7.07;;;3.75;;
11287;SDS011;5700;50.996;7.044;2024-01-30T08:32:38;7.22;;;4.00;;
11287;SDS011;5700;50.996;7.044;2024-01-30T08:35:40;10.95;;;4.03;;
11287;SDS011;5700;50.996;7.044;2024-01-30T08:38:42;6.88;;;4.18;;
11287;SDS011;5700;50.996;7.044;2024-01-30T08:41:45;7.85;;;4.38;;
11287;SDS011;5700;50.996;7.044;2024-01-30T08:44:47;10.18;;;4.40;;
11287;SDS011;5700;50.996;7.044;2024-01-30T08:47:49;7.63;;;4.53;;
11287;SDS011;5700;50.996;7.044;2024-01-30T08:50:51;9.30;;;4.10;;
11287;SDS011;5700;50.996;7.044;2024-01-30T08:53:53;7.85;;;4.00;;
11287;SDS011;5700;50.996;7.044;2024-01-30T08:56:56;7.30;;;4.05;;
11287;SDS011;5700;50.996;7.044;2024-01-30T08:59:58;8.90;;;3.97;;
11287;SDS011;5700;50.996;7.044;2024-01-30T09:03:00;7.32;;;3.90;;
11287;SDS011;5700;50.996;7.044;2024-01-30T09:06:02;7.38;;;4.18;;
11287;SDS011;5700;50.996;7.044;2024-01-30T09:09:04;8.23;;;4.20;;
11287;SDS011;5700;50.996;7.044;2024-01-30T09:12:08;7.72;;;3.88;;
11287;SDS011;5700;50.996;7.044;2024-01-30T09:15:11;8.73;;;3.70;;
11287;SDS011;5700;50.996;7.044;2024-01-30T09:18:13;8.75;;;3.88;;
11287;SDS011;5700;50.996;7.044;2024-01-30T09:21:14;7.28;;;3.47;;
11287;SDS011;5700;50.996;7.044;2024-01-30T09:24:17;6.13;;;3.75;;
11287;SDS011;5700;50.996;7.044;2024-01-30T09:27:20;8.90;;;3.88;;
11287;SDS011;5700;50.996;7.044;2024-01-30T09:30:22;7.20;;;4.00;;
11287;SDS011;5700;50.996;7.044;2024-01-30T09:33:23;10.18;;;4.07;;
11287;SDS011;5700;50.996;7.044;2024-01-30T09:36:25;6.60;;;3.67;;
11287;SDS011;5700;50.996;7.044;2024-01-30T09:39:27;7.90;;;3.60;;
11287;SDS011;5700;50.996;7.044;2024-01-30T09:42:32;8.00;;;3.75;;
11287;SDS011;5700;50.996;7.044;2024-01-30T09:45:35;8.30;;;4.18;;
11287;SDS011;5700;50.996;7.044;2024-01-30T09:48:37;6.60;;;3.65;;
11287;SDS011;5700;50.996;7.044;2024-01-30T09:51:39;7.95;;;4.25;;
11287;SDS011;5700;50.996;7.044;2024-01-30T09:54:41;10.00;;;3.83;;
11287;SDS011;5700;50.996;7.044;2024-01-30T09:57:45;10.00;;;4.00;;
11287;SDS011;5700;50.996;7.044;2024-01-30T10:00:47;9.25;;;4.45;;
11287;SDS011;5700;50.996;7.044;2024-01-30T10:03:50;6.72;;;3.95;;
11287;SDS011;5700;50.996;7.044;2024-01-30T10:06:52;8.55;;;3.40;;
11287;SDS011;5700;50.996;7.044;2024-01-30T10:09:53;7.97;;;4.45;;
11287;SDS011;5700;50.996;7.044;2024-01-30T10:12:58;8.13;;;3.42;;
11287;SDS011;5700;50.996;7.044;2024-01-30T10:16:00;6.90;;;3.85;;
11287;SDS011;5700;50.996;7.044;2024-01-30T10:19:03;10.98;;;4.35;;
11287;SDS011;5700;50.996;7.044;2024-01-30T10:22:04;6.53;;;3.47;;
11287;SDS011;5700;50.996;7.044;2024-01-30T10:25:06;7.15;;;3.83;;
11287;SDS011;5700;50.996;7.044;2024-01-30T10:28:09;6.22;;;3.35;;
11287;SDS011;5700;50.996;7.044;2024-01-30T10:31:11;7.72;;;3.63;;
11287;SDS011;5700;50.996;7.044;2024-01-30T10:34:12;6.32;;;3.63;;
11287;SDS011;5700;50.996;7.044;2024-01-30T10:37:15;8.98;;;3.88;;
11287;SDS011;5700;50.996;7.044;2024-01-30T10:40:17;7.15;;;3.85;;
11287;SDS011;5700;50.996;7.044;2024-01-30T10:43:26;8.32;;;3.80;;
11287;SDS011;5700;50.996;7.044;2024-01-30T10:46:32;7.82;;;3.88;;
11287;SDS011;5700;50.996;7.044;2024-01-30T10:49:34;6.72;;;3.35;;
11287;SDS011;5700;50.996;7.044;2024-01-30T10:52:36;6.82;;;3.40;;
11287;SDS011;5700;50.996;7.044;2024-01-30T10:55:38;8.57;;;3.95;;
11287;SDS011;5700;50.996;7.044;2024-01-30T10:58:41;8.27;;;4.05;;
11287;SDS011;5700;50.996;7.044;2024-01-30T11:01:42;8.48;;;3.60;;
11287;SDS011;5700;50.996;7.044;2024-01-30T11:04:45;5.57;;;3.13;;
11287;SDS011;5700;50.996;7.044;2024-01-30T11:07:48;7.90;;;3.80;;
11287;SDS011;5700;50.996;7.044;2024-01-30T11:10:49;6.65;;;3.40;;
11287;SDS011;5700;50.996;7.044;2024-01-30T11:13:52;7.82;;;3.00;;
11287;SDS011;5700;50.996;7.044;2024-01-30T11:16:56;9.45;;;3.55;;
11287;SDS011;5700;50.996;7.044;2024-01-30T11:19:58;8.15;;;3.63;;
11287;SDS011;5700;50.996;7.044;2024-01-30T11:23:00;7.38;;;3.60;;
11287;SDS011;5700;50.996;7.044;2024-01-30T11:26:06;6.00;;;3.38;;
11287;SDS011;5700;50.996;7.044;2024-01-30T11:29:09;7.38;;;3.47;;
11287;SDS011;5700;50.996;7.044;2024-01-30T11:32:11;7.25;;;3.60;;
11287;SDS011;5700;50.996;7.044;2024-01-30T11:35:24;5.72;;;3.40;;
11287;SDS011;5700;50.996;7.044;2024-01-30T11:38:26;8.05;;;4.05;;
11287;SDS011;5700;50.996;7.044;2024-01-30T11:41:28;7.70;;;3.45;;
11287;SDS011;5700;50.996;7.044;2024-01-30T11:44:32;6.75;;;3.17;;
11287;SDS011;5700;50.996;7.044;2024-01-30T11:47:34;6.47;;;3.22;;
11287;SDS011;5700;50.996;7.044;2024-01-30T11:50:37;5.97;;;3.42;;
11287;SDS011;5700;50.996;7.044;2024-01-30T11:53:40;10.45;;;3.47;;
11287;SDS011;5700;50.996;7.044;2024-01-30T11:56:42;8.43;;;3.88;;
11287;SDS011;5700;50.996;7.044;2024-01-30T11:59:45;7.78;;;3.60;;
11287;SDS011;5700;50.996;7.044;2024-01-30T12:02:49;6.63;;;3.28;;
11287;SDS011;5700;50.996;7.044;2024-01-30T12:05:54;6.50;;;3.30;;
11287;SDS011;5700;50.996;7.044;2024-01-30T12:08:57;7.63;;;3.33;;
11287;SDS011;5700;50.996;7.044;2024-01-30T12:12:00;8.05;;;3.33;;
11287;SDS011;5700;50.996;7.044;2024-01-30T12:15:03;5.93;;;3.08;;
11287;SDS011;5700;50.996;7.044;2024-01-30T12:18:06;7.30;;;3.15;;
11287;SDS011;5700;50.996;7.044;2024-01-30T12:21:08;8.90;;;3.50;;
11287;SDS011;5700;50.996;7.044;2024-01-30T12:24:10;7.50;;;3.30;;
11287;SDS011;5700;50.996;7.044;2024-01-30T12:27:14;6.18;;;3.28;;
11287;SDS011;5700;50.996;7.044;2024-01-30T12:30:19;7.28;;;2.83;;
11287;SDS011;5700;50.996;7.044;2024-01-30T12:33:21;8.48;;;3.28;;
11287;SDS011;5700;50.996;7.044;2024-01-30T12:36:23;5.72;;;3.58;;
11287;SDS011;5700;50.996;7.044;2024-01-30T12:39:25;7.85;;;3.33;;
11287;SDS011;5700;50.996;7.044;2024-01-30T12:42:27;7.85;;;3.63;;
11287;SDS011;5700;50.996;7.044;2024-01-30T12:45:31;6.05;;;3.45;;
11287;SDS011;5700;50.996;7.044;2024-01-30T12:48:33;7.35;;;3.53;;
11287;SDS011;5700;50.996;7.044;2024-01-30T12:51:34;7.32;;;3.72;;
11287;SDS011;5700;50.996;7.044;2024-01-30T12:54:51;7.75;;;3.13;;
11287;SDS011;5700;50.996;7.044;2024-01-30T12:57:54;7.47;;;3.38;;
11287;SDS011;5700;50.996;7.044;2024-01-30T13:00:57;6.97;;;3.50;;
11287;SDS011;5700;50.996;7.044;2024-01-30T13:03:59;6.40;;;3.60;;
11287;SDS011;5700;50.996;7.044;2024-01-30T13:07:01;6.75;;;3.42;;
11287;SDS011;5700;50.996;7.044;2024-01-30T13:10:03;7.63;;;3.75;;
11287;SDS011;5700;50.996;7.044;2024-01-30T13:13:04;5.65;;;3.90;;
11287;SDS011;5700;50.996;7.044;2024-01-30T13:16:08;6.55;;;3.58;;
11287;SDS011;5700;50.996;7.044;2024-01-30T13:19:10;9.57;;;4.00;;
11287;SDS011;5700;50.996;7.044;2024-01-30T13:22:12;6.57;;;3.50;;
11287;SDS011;5700;50.996;7.044;2024-01-30T13:25:13;8.27;;;3.78;;
11287;SDS011;5700;50.996;7.044;2024-01-30T13:28:15;7.47;;;4.00;;
11287;SDS011;5700;50.996;7.044;2024-01-30T13:31:19;10.00;;;4.30;;
11287;SDS011;5700;50.996;7.044;2024-01-30T13:34:20;9.95;;;4.65;;
11287;SDS011;5700;50.996;7.044;2024-01-30T13:37:22;12.43;;;5.18;;
11287;SDS011;5700;50.996;7.044;2024-01-30T13:40:24;7.95;;;4.10;;
11287;SDS011;5700;50.996;7.044;2024-01-30T13:43:26;9.70;;;4.32;;
11287;SDS011;5700;50.996;7.044;2024-01-30T13:46:29;7.10;;;4.15;;
11287;SDS011;5700;50.996;7.044;2024-01-30T13:49:31;9.93;;;3.88;;
11287;SDS011;5700;50.996;7.044;2024-01-30T13:52:32;8.90;;;4.63;;
11287;SDS011;5700;50.996;7.044;2024-01-30T13:55:34;9.13;;;4.75;;
11287;SDS011;5700;50.996;7.044;2024-01-30T13:58:36;14.43;;;5.50;;
11287;SDS011;5700;50.996;7.044;2024-01-30T14:01:40;11.75;;;4.60;;
11287;SDS011;5700;50.996;7.044;2024-01-30T14:04:41;9.02;;;3.95;;
11287;SDS011;5700;50.996;7.044;2024-01-30T14:07:43;7.72;;;3.72;;
11287;SDS011;5700;50.996;7.044;2024-01-30T14:10:45;10.38;;;3.75;;
11287;SDS011;5700;50.996;7.044;2024-01-30T14:13:46;10.43;;;4.15;;
11287;SDS011;5700;50.996;7.044;2024-01-30T14:16:49;7.45;;;3.70;;
11287;SDS011;5700;50.996;7.044;2024-01-30T14:19:51;6.90;;;3.90;;
11287;SDS011;5700;50.996;7.044;2024-01-30T14:22:52;7.55;;;3.65;;
11287;SDS011;5700;50.996;7.044;2024-01-30T14:25:55;11.32;;;3.65;;
11287;SDS011;5700;50.996;7.044;2024-01-30T14:28:57;14.15;;;4.00;;
11287;SDS011;5700;50.996;7.044;2024-01-30T14:32:00;7.97;;;4.15;;
11287;SDS011;5700;50.996;7.044;2024-01-30T14:35:01;11.00;;;3.95;;
11287;SDS011;5700;50.996;7.044;2024-01-30T14:38:03;8.80;;;3.90;;
11287;SDS011;5700;50.996;7.044;2024-01-30T14:41:07;12.60;;;4.10;;
11287;SDS011;5700;50.996;7.044;2024-01-30T14:44:08;8.10;;;3.63;;
11287;SDS011;5700;50.996;7.044;2024-01-30T14:47:11;8.60;;;3.40;;
11287;SDS011;5700;50.996;7.044;2024-01-30T14:50:13;7.57;;;3.75;;
11287;SDS011;5700;50.996;7.044;2024-01-30T14:53:16;7.93;;;3.45;;
11287;SDS011;5700;50.996;7.044;2024-01-30T14:56:18;9.60;;;3.78;;
11287;SDS011;5700;50.996;7.044;2024-01-30T14:59:20;8.43;;;3.42;;
11287;SDS011;5700;50.996;7.044;2024-01-30T15:02:23;7.88;;;3.15;;
11287;SDS011;5700;50.996;7.044;2024-01-30T15:05:25;9.85;;;4.53;;
11287;SDS011;5700;50.996;7.044;2024-01-30T15:08:27;8.93;;;3.58;;
11287;SDS011;5700;50.996;7.044;2024-01-30T15:11:28;8.68;;;3.85;;
11287;SDS011;5700;50.996;7.044;2024-01-30T15:14:30;11.73;;;3.55;;
11287;SDS011;5700;50.996;7.044;2024-01-30T15:17:33;9.10;;;4.65;;
11287;SDS011;5700;50.996;7.044;2024-01-30T15:20:36;9.73;;;5.10;;
11287;SDS011;5700;50.996;7.044;2024-01-30T15:23:37;8.45;;;3.90;;
11287;SDS011;5700;50.996;7.044;2024-01-30T15:26:39;12.10;;;3.88;;
11287;SDS011;5700;50.996;7.044;2024-01-30T15:29:40;9.65;;;4.13;;
11287;SDS011;5700;50.996;7.044;2024-01-30T15:32:43;6.20;;;3.40;;
11287;SDS011;5700;50.996;7.044;2024-01-30T15:35:45;7.38;;;3.90;;
11287;SDS011;5700;50.996;7.044;2024-01-30T15:38:46;8.25;;;4.53;;
11287;SDS011;5700;50.996;7.044;2024-01-30T15:41:48;9.95;;;3.80;;
11287;SDS011;5700;50.996;7.044;2024-01-30T15:44:50;9.68;;;4.35;;
11287;SDS011;5700;50.996;7.044;2024-01-30T15:47:53;9.10;;;4.20;;
11287;SDS011;5700;50.996;7.044;2024-01-30T15:50:55;8.43;;;3.88;;
11287;SDS011;5700;50.996;7.044;2024-01-30T15:53:56;7.95;;;3.65;;
11287;SDS011;5700;50.996;7.044;2024-01-30T15:56:58;8.93;;;3.38;;
11287;SDS011;5700;50.996;7.044;2024-01-30T16:00:00;7.18;;;3.75;;
11287;SDS011;5700;50.996;7.044;2024-01-30T16:03:03;8.00;;;3.97;;
11287;SDS011;5700;50.996;7.044;2024-01-30T16:06:05;11.18;;;5.28;;
11287;SDS011;5700;50.996;7.044;2024-01-30T16:09:06;10.18;;;4.50;;
11287;SDS011;5700;50.996;7.044;2024-01-30T16:12:08;10.93;;;5.50;;
11287;SDS011;5700;50.996;7.044;2024-01-30T16:15:09;10.23;;;5.00;;
11287;SDS011;5700;50.996;7.044;2024-01-30T16:18:12;8.98;;;4.85;;
11287;SDS011;5700;50.996;7.044;2024-01-30T16:21:13;9.35;;;4.40;;
11287;SDS011;5700;50.996;7.044;2024-01-30T16:24:16;12.05;;;4.00;;
11287;SDS011;5700;50.996;7.044;2024-01-30T16:27:17;10.10;;;3.70;;
11287;SDS011;5700;50.996;7.044;2024-01-30T16:30:19;5.57;;;2.80;;
11287;SDS011;5700;50.996;7.044;2024-01-30T16:33:22;6.90;;;2.88;;
11287;SDS011;5700;50.996;7.044;2024-01-30T16:36:24;8.45;;;2.90;;
11287;SDS011;5700;50.996;7.044;2024-01-30T16:39:26;11.75;;;3.70;;
11287;SDS011;5700;50.996;7.044;2024-01-30T16:42:27;7.90;;;2.10;;
11287;SDS011;5700;50.996;7.044;2024-01-30T16:45:29;5.53;;;2.20;;
11287;SDS011;5700;50.996;7.044;2024-01-30T16:48:32;6.72;;;2.30;;
11287;SDS011;5700;50.996;7.044;2024-01-30T16:51:34;6.38;;;2.00;;
11287;SDS011;5700;50.996;7.044;2024-01-30T16:54:36;5.00;;;1.95;;
11287;SDS011;5700;50.996;7.044;2024-01-30T16:57:38;6.70;;;2.65;;
11287;SDS011;5700;50.996;7.044;2024-01-30T17:00:41;3.90;;;1.70;;
11287;SDS011;5700;50.996;7.044;2024-01-30T17:03:44;6.15;;;1.85;;
11287;SDS011;5700;50.996;7.044;2024-01-30T17:06:48;4.55;;;1.80;;
11287;SDS011;5700;50.996;7.044;2024-01-30T17:09:52;5.05;;;1.90;;
11287;SDS011;5700;50.996;7.044;2024-01-30T17:12:56;4.93;;;1.80;;
11287;SDS011;5700;50.996;7.044;2024-01-30T17:15:59;5.57;;;1.58;;
11287;SDS011;5700;50.996;7.044;2024-01-30T17:19:03;4.47;;;1.73;;
11287;SDS011;5700;50.996;7.044;2024-01-30T17:22:05;6.43;;;2.13;;
11287;SDS011;5700;50.996;7.044;2024-01-30T17:25:06;5.15;;;2.15;;
11287;SDS011;5700;50.996;7.044;2024-01-30T17:28:09;6.07;;;1.90;;
11287;SDS011;5700;50.996;7.044;2024-01-30T17:31:10;4.43;;;2.15;;
11287;SDS011;5700;50.996;7.044;2024-01-30T17:34:15;2.70;;;1.35;;
11287;SDS011;5700;50.996;7.044;2024-01-30T17:37:17;2.58;;;1.50;;
11287;SDS011;5700;50.996;7.044;2024-01-30T17:40:18;5.85;;;1.92;;
11287;SDS011;5700;50.996;7.044;2024-01-30T17:43:20;4.82;;;1.40;;
11287;SDS011;5700;50.996;7.044;2024-01-30T17:46:21;3.25;;;1.58;;
11287;SDS011;5700;50.996;7.044;2024-01-30T17:49:25;4.88;;;1.42;;
11287;SDS011;5700;50.996;7.044;2024-01-30T17:52:29;2.17;;;1.20;;
11287;SDS011;5700;50.996;7.044;2024-01-30T17:55:31;2.80;;;1.17;;
11287;SDS011;5700;50.996;7.044;2024-01-30T17:58:33;3.42;;;1.10;;
11287;SDS011;5700;50.996;7.044;2024-01-30T18:01:34;3.03;;;1.30;;
11287;SDS011;5700;50.996;7.044;2024-01-30T18:04:38;5.20;;;1.80;;
11287;SDS011;5700;50.996;7.044;2024-01-30T18:07:40;3.78;;;1.85;;
11287;SDS011;5700;50.996;7.044;2024-01-30T18:10:43;4.25;;;1.25;;
11287;SDS011;5700;50.996;7.044;2024-01-30T18:13:46;9.27;;;2.10;;
11287;SDS011;5700;50.996;7.044;2024-01-30T18:16:47;1.55;;;0.85;;
11287;SDS011;5700;50.996;7.044;2024-01-30T18:19:50;4.38;;;1.30;;
11287;SDS011;5700;50.996;7.044;2024-01-30T18:22:52;5.70;;;2.13;;
11287;SDS011;5700;50.996;7.044;2024-01-30T18:25:54;9.13;;;2.92;;
11287;SDS011;5700;50.996;7.044;2024-01-30T18:28:59;6.90;;;1.85;;
11287;SDS011;5700;50.996;7.044;2024-01-30T18:32:01;5.15;;;1.20;;